Time;durP1;ratioP1;P1;durP2;ratioP2;P2;SDS_P1;SDS_P2;PMS_P1;PMS_P2;Temp;Humidity;BMP_temperature;BMP_pressure;BME280_temperature;BME280_humidity;BME280_pressure;Samples;Min_cycle;Max_cycle;Signal;HPM_P1;HPM_P2
2021/06/18 00:01:50;;;;;;;6.05;5.45;;;23.00;74.20;;;;;;5107049;28;20419;-46
2021/06/18 00:04:16;;;;;;;6.05;5.53;;;22.90;74.60;;;;;;5109573;28;20034;-44
2021/06/18 00:06:41;;;;;;;8.68;5.30;;;22.90;74.70;;;;;;5104900;28;20485;-44
2021/06/18 00:09:08;;;;;;;5.78;5.18;;;22.80;74.80;;;;;;5106168;27;20035;-47
2021/06/18 00:11:34;;;;;;;11.63;5.32;;;22.80;75.10;;;;;;5120781;27;20038;-45
2021/06/18 00:13:59;;;;;;;6.75;5.15;;;22.70;75.90;;;;;;5127295;27;20046;-45
2021/06/18 00:16:25;;;;;;;5.80;5.22;;;22.70;76.40;;;;;;5093975;28;20020;-46
2021/06/18 00:18:50;;;;;;;6.35;5.10;;;22.60;76.40;;;;;;5102801;28;20318;-47
2021/06/18 00:21:16;;;;;;;6.40;5.10;;;22.60;76.30;;;;;;5107102;28;20027;-45
2021/06/18 00:23:41;;;;;;;5.43;4.90;;;22.60;76.50;;;;;;5108791;28;20515;-44
2021/06/18 00:26:07;;;;;;;5.65;4.97;;;22.60;75.90;;;;;;5109064;27;20032;-43
2021/06/18 00:28:33;;;;;;;7.93;5.88;;;22.60;76.90;;;;;;5129413;27;20030;-44
2021/06/18 00:31:01;;;;;;;6.28;5.35;;;22.50;77.00;;;;;;5107024;27;20030;-44
2021/06/18 00:33:28;;;;;;;6.43;5.63;;;22.50;77.70;;;;;;5107568;28;20345;-44
2021/06/18 00:35:53;;;;;;;6.00;5.38;;;22.50;77.90;;;;;;5100693;28;20020;-44
2021/06/18 00:38:19;;;;;;;6.85;5.70;;;22.40;78.00;;;;;;5108223;28;20012;-44
2021/06/18 00:40:46;;;;;;;6.45;5.18;;;22.40;77.90;;;;;;5103367;28;20016;-44
2021/06/18 00:43:13;;;;;;;5.70;5.18;;;22.30;78.60;;;;;;5107126;28;20037;-45
2021/06/18 00:45:38;;;;;;;6.53;5.30;;;22.30;79.50;;;;;;5106641;28;20016;-45
2021/06/18 00:48:05;;;;;;;7.90;5.65;;;22.30;80.10;;;;;;5108525;28;20020;-44
2021/06/18 00:50:31;;;;;;;6.47;5.80;;;22.20;80.60;;;;;;5108178;28;20039;-44
2021/06/18 00:52:57;;;;;;;6.80;5.38;;;22.20;81.10;;;;;;5108939;28;20031;-44
2021/06/18 00:55:24;;;;;;;6.90;5.90;;;22.20;81.30;;;;;;5099272;28;20529;-44
2021/06/18 00:57:51;;;;;;;7.57;5.15;;;22.20;82.60;;;;;;5115925;28;20047;-44
2021/06/18 01:00:17;;;;;;;6.10;5.35;;;22.20;82.90;;;;;;5128495;27;20083;-44
2021/06/18 01:02:43;;;;;;;8.43;5.68;;;22.10;83.80;;;;;;5128883;27;20031;-45
2021/06/18 01:05:14;;;;;;;6.22;5.63;;;22.10;84.10;;;;;;5106343;28;20370;-44
2021/06/18 01:07:51;;;;;;;6.45;5.60;;;22.00;85.70;;;;;;5102828;28;20024;-44
2021/06/18 01:10:49;;;;;;;6.10;5.50;;;22.00;86.70;;;;;;5106963;28;20196;-45
2021/06/18 01:13:52;;;;;;;8.02;5.95;;;22.00;88.50;;;;;;5120283;28;20023;-47
2021/06/18 01:16:31;;;;;;;7.07;6.05;;;22.00;88.90;;;;;;5107759;28;20024;-44
2021/06/18 01:19:04;;;;;;;7.90;6.18;;;21.90;89.80;;;;;;5108389;28;20099;-43
2021/06/18 01:21:37;;;;;;;10.13;7.18;;;21.80;90.60;;;;;;5107130;28;20490;-44
2021/06/18 01:24:22;;;;;;;7.20;6.50;;;21.80;91.40;;;;;;5108408;28;20024;-45
2021/06/18 01:27:15;;;;;;;8.00;6.63;;;21.70;92.10;;;;;;5104283;28;20019;-44
2021/06/18 01:29:48;;;;;;;7.15;6.45;;;21.60;92.60;;;;;;5108059;28;20495;-46
2021/06/18 01:32:19;;;;;;;7.45;6.72;;;21.60;93.60;;;;;;5113079;27;20030;-44
2021/06/18 01:34:46;;;;;;;8.13;6.60;;;21.60;94.70;;;;;;5117012;27;20022;-43
2021/06/18 01:37:15;;;;;;;7.18;6.53;;;21.50;95.10;;;;;;5118520;27;20038;-44
2021/06/18 01:39:43;;;;;;;8.48;6.88;;;21.50;95.80;;;;;;5110146;28;20285;-44
2021/06/18 01:42:11;;;;;;;7.40;6.60;;;21.50;96.60;;;;;;5112671;27;20127;-44
2021/06/18 01:44:38;;;;;;;7.45;6.75;;;21.30;97.00;;;;;;5110417;28;20098;-44
2021/06/18 01:47:07;;;;;;;7.35;6.60;;;21.30;97.80;;;;;;5091128;28;20016;-44
2021/06/18 01:49:36;;;;;;;9.00;7.22;;;21.30;98.70;;;;;;5089982;28;20097;-44
2021/06/18 01:52:04;;;;;;;7.95;7.15;;;21.20;99.70;;;;;;5110210;28;20023;-43
2021/06/18 01:54:32;;;;;;;7.78;7.07;;;21.20;99.90;;;;;;5111595;28;20035;-44
2021/06/18 01:57:00;;;;;;;7.85;7.10;;;21.20;99.90;;;;;;5117074;27;20035;-47
2021/06/18 01:59:28;;;;;;;9.75;7.05;;;21.10;99.90;;;;;;5109215;27;20084;-45
2021/06/18 02:01:53;;;;;;;8.70;7.88;;;21.10;99.90;;;;;;5109877;28;20023;-44
2021/06/18 02:04:19;;;;;;;8.23;7.53;;;21.10;99.90;;;;;;5111342;28;20088;-43
2021/06/18 02:06:48;;;;;;;9.35;7.03;;;21.00;99.90;;;;;;5111236;28;20365;-44
2021/06/18 02:09:15;;;;;;;8.65;7.75;;;21.00;99.90;;;;;;5106172;28;20055;-45
2021/06/18 02:11:42;;;;;;;8.35;7.38;;;20.90;99.90;;;;;;5089372;28;20412;-43
2021/06/18 02:14:15;;;;;;;9.50;8.00;;;20.90;99.90;;;;;;5119282;27;20024;-43
2021/06/18 02:16:44;;;;;;;8.30;7.18;;;20.90;99.90;;;;;;5113677;27;20506;-44
2021/06/18 02:19:15;;;;;;;8.48;7.68;;;20.90;99.90;;;;;;5110757;28;20441;-45
2021/06/18 02:21:40;;;;;;;7.55;6.85;;;20.90;99.90;;;;;;5111038;28;20031;-45
2021/06/18 02:24:07;;;;;;;8.07;7.28;;;20.80;99.90;;;;;;5109029;28;20474;-44
2021/06/18 02:26:33;;;;;;;10.15;8.35;;;20.80;99.90;;;;;;5112415;27;20375;-45
2021/06/18 02:28:58;;;;;;;8.70;7.90;;;20.80;99.90;;;;;;5113596;27;20065;-46
2021/06/18 02:31:25;;;;;;;9.23;8.10;;;20.70;99.90;;;;;;5102020;28;20610;-43
2021/06/18 02:33:54;;;;;;;8.02;7.25;;;20.70;99.90;;;;;;5110372;28;20512;-44
2021/06/18 02:36:20;;;;;;;9.05;8.25;;;20.60;99.90;;;;;;5105450;28;20058;-44
2021/06/18 02:38:48;;;;;;;10.30;8.00;;;20.60;99.90;;;;;;5109912;28;20311;-44
2021/06/18 02:41:13;;;;;;;12.65;8.40;;;20.50;99.90;;;;;;5106135;28;20392;-44
2021/06/18 02:43:40;;;;;;;9.82;8.05;;;20.40;99.90;;;;;;5110957;28;20041;-45
2021/06/18 02:46:06;;;;;;;12.27;8.68;;;20.40;99.90;;;;;;5109736;28;20051;-44
2021/06/18 02:48:38;;;;;;;14.32;10.05;;;20.30;99.90;;;;;;5109910;28;20031;-44
2021/06/18 02:51:24;;;;;;;9.48;8.57;;;20.30;99.90;;;;;;5109714;28;20020;-44
2021/06/18 02:54:08;;;;;;;13.98;8.77;;;20.30;99.90;;;;;;5106031;28;20103;-47
2021/06/18 02:56:48;;;;;;;13.63;9.35;;;20.30;99.90;;;;;;5108340;27;20099;-44
2021/06/18 02:59:21;;;;;;;11.02;9.63;;;20.30;99.90;;;;;;5109143;27;20454;-44
2021/06/18 03:01:49;;;;;;;10.63;9.38;;;20.20;99.90;;;;;;5109479;28;20047;-44
2021/06/18 03:04:25;;;;;;;11.82;9.45;;;20.20;99.90;;;;;;5109967;27;20029;-44
2021/06/18 03:06:54;;;;;;;14.95;9.65;;;20.10;99.90;;;;;;5106126;28;20080;-47
2021/06/18 03:09:26;;;;;;;9.88;8.95;;;20.10;99.90;;;;;;5105212;28;20035;-44
2021/06/18 03:11:53;;;;;;;12.00;9.27;;;20.10;99.90;;;;;;5109394;27;20032;-44
2021/06/18 03:14:22;;;;;;;14.18;9.95;;;20.10;99.90;;;;;;5107862;28;20493;-43
2021/06/18 03:16:49;;;;;;;10.48;9.43;;;20.00;99.90;;;;;;5101921;28;20042;-45
2021/06/18 03:19:18;;;;;;;12.27;9.63;;;20.10;99.90;;;;;;5101234;28;20469;-44
2021/06/18 03:21:46;;;;;;;13.18;9.68;;;20.10;99.90;;;;;;5102112;28;20027;-44
2021/06/18 03:24:13;;;;;;;11.40;10.30;;;20.00;99.90;;;;;;5109739;28;20015;-44
2021/06/18 03:26:39;;;;;;;11.15;10.02;;;20.00;99.90;;;;;;5101343;27;20466;-44
2021/06/18 03:29:07;;;;;;;10.07;9.07;;;20.00;99.90;;;;;;5115364;27;20012;-44
2021/06/18 03:31:33;;;;;;;10.77;9.35;;;20.00;99.90;;;;;;5107541;28;20034;-43
2021/06/18 03:34:00;;;;;;;10.50;9.45;;;20.00;99.90;;;;;;5106380;28;20023;-45
2021/06/18 03:36:27;;;;;;;10.85;9.48;;;20.00;99.90;;;;;;5102418;28;20016;-44
2021/06/18 03:38:54;;;;;;;10.80;9.70;;;20.00;99.90;;;;;;5095933;28;20081;-45
2021/06/18 03:41:21;;;;;;;10.90;9.13;;;20.00;99.90;;;;;;5107539;27;20019;-44
2021/06/18 03:43:48;;;;;;;14.93;10.20;;;20.10;99.90;;;;;;5114746;27;20192;-44
2021/06/18 03:46:15;;;;;;;11.25;10.00;;;20.00;99.90;;;;;;5122808;27;20015;-45
2021/06/18 03:48:44;;;;;;;9.80;8.80;;;20.10;99.90;;;;;;5123847;27;20102;-46
2021/06/18 03:51:10;;;;;;;11.90;10.23;;;20.10;99.90;;;;;;5128014;27;20586;-45
2021/06/18 03:53:37;;;;;;;10.95;9.68;;;20.10;99.90;;;;;;5103286;27;20031;-46
2021/06/18 03:56:04;;;;;;;13.20;10.27;;;20.10;99.90;;;;;;5102076;28;20036;-46
2021/06/18 03:58:31;;;;;;;13.05;9.95;;;20.20;99.90;;;;;;5109102;28;20016;-48
2021/06/18 04:00:57;;;;;;;11.80;10.32;;;20.20;99.90;;;;;;5106246;28;20254;-47
2021/06/18 04:03:24;;;;;;;10.85;9.77;;;20.30;99.90;;;;;;5105913;28;20015;-48
2021/06/18 04:05:51;;;;;;;11.35;9.73;;;20.30;99.90;;;;;;5099242;28;20011;-45
2021/06/18 04:08:19;;;;;;;10.05;9.05;;;20.30;99.90;;;;;;5098077;28;20022;-46
2021/06/18 04:10:45;;;;;;;12.73;9.77;;;20.30;99.90;;;;;;5098631;28;20094;-44
2021/06/18 04:13:14;;;;;;;10.02;8.80;;;20.40;99.90;;;;;;5099996;28;20032;-44
2021/06/18 04:15:41;;;;;;;12.32;9.63;;;20.40;99.90;;;;;;5098273;28;20107;-46
2021/06/18 04:18:07;;;;;;;11.45;9.18;;;20.40;99.90;;;;;;5097570;27;20717;-44
2021/06/18 04:20:34;;;;;;;10.13;9.13;;;20.50;99.90;;;;;;5091753;28;20048;-44
2021/06/18 04:22:59;;;;;;;10.77;9.70;;;20.50;99.90;;;;;;5094519;28;20280;-45
2021/06/18 04:25:25;;;;;;;12.40;10.48;;;20.60;99.90;;;;;;5094798;27;20456;-44
2021/06/18 04:27:52;;;;;;;11.57;9.90;;;20.60;99.90;;;;;;5088901;28;20034;-44
2021/06/18 04:30:18;;;;;;;16.95;9.63;;;20.60;99.90;;;;;;5087505;27;20032;-44
2021/06/18 04:32:44;;;;;;;11.93;9.50;;;20.60;99.90;;;;;;5088208;28;20077;-44
2021/06/18 04:35:10;;;;;;;10.65;9.02;;;20.60;99.90;;;;;;5089791;28;20020;-44
2021/06/18 04:37:37;;;;;;;10.02;9.02;;;20.70;99.90;;;;;;5099160;28;20296;-45
2021/06/18 04:40:08;;;;;;;10.27;9.25;;;20.70;99.90;;;;;;5119844;28;20015;-45
2021/06/18 04:42:34;;;;;;;11.65;9.35;;;20.70;99.90;;;;;;5113324;28;20031;-47
2021/06/18 04:44:59;;;;;;;10.88;9.77;;;20.70;99.90;;;;;;5106306;28;20016;-45
2021/06/18 04:47:25;;;;;;;11.15;9.68;;;20.70;99.90;;;;;;5102377;28;20027;-46
2021/06/18 04:49:51;;;;;;;12.63;9.70;;;20.70;99.90;;;;;;5106928;28;20012;-47
2021/06/18 04:52:17;;;;;;;10.48;9.32;;;20.80;99.90;;;;;;5118212;28;20228;-46
2021/06/18 04:54:43;;;;;;;10.68;8.93;;;20.80;99.90;;;;;;5128898;27;20169;-44
2021/06/18 04:57:09;;;;;;;12.60;9.15;;;20.80;99.90;;;;;;5105551;27;20040;-44
2021/06/18 04:59:37;;;;;;;12.48;9.52;;;20.80;99.90;;;;;;5097322;28;20101;-44
2021/06/18 05:02:03;;;;;;;10.95;9.75;;;20.90;99.90;;;;;;5097681;28;20024;-44
2021/06/18 05:04:29;;;;;;;11.43;9.80;;;20.90;99.90;;;;;;5103195;28;20012;-44
2021/06/18 05:06:54;;;;;;;10.98;8.55;;;20.90;99.90;;;;;;5101504;28;20014;-44
2021/06/18 05:09:20;;;;;;;10.75;9.45;;;21.00;99.90;;;;;;5092869;28;20102;-48
2021/06/18 05:11:45;;;;;;;9.45;8.55;;;21.00;99.90;;;;;;5106480;28;20114;-51
2021/06/18 05:14:11;;;;;;;9.88;8.93;;;21.10;99.90;;;;;;5115614;27;20036;-47
2021/06/18 05:16:38;;;;;;;9.60;8.60;;;21.10;99.90;;;;;;5096071;28;20024;-47
2021/06/18 05:19:08;;;;;;;14.27;9.23;;;21.20;99.90;;;;;;5098917;28;20023;-44
2021/06/18 05:21:34;;;;;;;11.30;8.60;;;21.20;99.90;;;;;;5111856;28;20077;-44
2021/06/18 05:24:00;;;;;;;13.45;9.18;;;21.30;99.90;;;;;;5111520;28;20291;-44
2021/06/18 05:26:29;;;;;;;11.73;9.30;;;21.30;99.90;;;;;;5108064;27;20072;-45
2021/06/18 05:28:54;;;;;;;9.18;8.27;;;21.30;99.90;;;;;;5114436;27;20031;-43
2021/06/18 05:31:20;;;;;;;9.90;8.63;;;21.40;99.90;;;;;;5110373;28;20039;-45
2021/06/18 05:33:45;;;;;;;11.05;9.27;;;21.40;99.90;;;;;;5104544;28;20114;-43
2021/06/18 05:36:11;;;;;;;8.80;8.00;;;21.40;99.90;;;;;;5103268;28;20478;-45
2021/06/18 05:38:36;;;;;;;11.30;8.73;;;21.50;99.90;;;;;;5091065;28;20039;-45
2021/06/18 05:41:02;;;;;;;9.50;8.57;;;21.50;99.90;;;;;;5090229;28;20465;-43
2021/06/18 05:43:27;;;;;;;12.73;8.70;;;21.60;99.90;;;;;;5091207;28;20057;-44
2021/06/18 05:45:53;;;;;;;11.40;7.72;;;21.70;99.90;;;;;;5093376;28;20488;-44
2021/06/18 05:48:18;;;;;;;12.70;9.10;;;21.80;99.90;;;;;;5109786;28;20027;-45
2021/06/18 05:50:44;;;;;;;13.57;8.77;;;21.90;99.90;;;;;;5103168;28;20024;-44
2021/06/18 05:53:09;;;;;;;12.15;8.93;;;21.90;99.90;;;;;;5105817;28;20487;-44
2021/06/18 05:55:35;;;;;;;12.02;8.45;;;22.10;99.90;;;;;;5106511;28;20020;-45
2021/06/18 05:58:00;;;;;;;8.93;8.07;;;22.10;99.90;;;;;;5117247;27;20384;-44
2021/06/18 06:00:26;;;;;;;10.43;7.75;;;22.20;99.90;;;;;;5101015;27;20461;-44
2021/06/18 06:02:51;;;;;;;8.82;7.93;;;22.30;99.90;;;;;;5106435;28;20145;-44
2021/06/18 06:05:17;;;;;;;9.18;7.22;;;22.40;99.90;;;;;;5111208;28;20127;-45
2021/06/18 06:07:48;;;;;;;18.13;8.77;;;22.50;99.90;;;;;;5111110;28;20031;-45
2021/06/18 06:10:14;;;;;;;11.77;8.63;;;22.60;99.90;;;;;;5110194;27;20032;-45
2021/06/18 06:12:43;;;;;;;11.90;9.10;;;22.60;99.90;;;;;;5110679;28;20051;-45
2021/06/18 06:15:09;;;;;;;11.25;9.05;;;22.80;99.90;;;;;;5116659;27;20027;-45
2021/06/18 06:17:35;;;;;;;15.20;9.43;;;22.90;99.90;;;;;;5098916;28;20082;-45
2021/06/18 06:20:00;;;;;;;15.10;9.57;;;22.90;99.90;;;;;;5097407;28;20462;-45
2021/06/18 06:22:26;;;;;;;11.07;8.88;;;23.00;99.90;;;;;;5098818;28;20036;-47
2021/06/18 06:24:51;;;;;;;13.35;9.13;;;23.10;99.90;;;;;;5106485;28;20023;-45
2021/06/18 06:27:18;;;;;;;15.00;8.98;;;23.10;99.90;;;;;;5099434;27;20031;-45
2021/06/18 06:29:44;;;;;;;15.63;8.68;;;23.20;99.90;;;;;;5107970;28;20019;-45
2021/06/18 06:32:09;;;;;;;12.48;9.38;;;23.30;99.90;;;;;;5099464;28;20035;-44
2021/06/18 06:34:35;;;;;;;17.35;8.90;;;23.30;99.90;;;;;;5102279;28;20518;-45
2021/06/18 06:37:00;;;;;;;14.48;9.02;;;23.30;99.90;;;;;;5100994;27;20102;-45
2021/06/18 06:39:26;;;;;;;18.90;9.07;;;23.40;99.90;;;;;;5109522;28;20500;-46
2021/06/18 06:41:51;;;;;;;20.38;9.43;;;23.60;99.90;;;;;;5092319;28;20035;-44
2021/06/18 06:44:17;;;;;;;15.18;9.70;;;23.60;99.90;;;;;;5099418;28;20461;-46
2021/06/18 06:46:42;;;;;;;13.73;10.00;;;23.70;99.90;;;;;;5097254;27;20270;-44
2021/06/18 06:49:08;;;;;;;18.52;11.20;;;23.80;99.90;;;;;;5125274;27;20027;-45
2021/06/18 06:51:34;;;;;;;13.68;9.55;;;23.80;99.90;;;;;;5118507;27;20040;-45
2021/06/18 06:53:59;;;;;;;18.33;9.95;;;23.90;99.90;;;;;;5110074;28;20026;-45
2021/06/18 06:56:25;;;;;;;18.42;9.77;;;24.10;99.90;;;;;;5096412;28;20039;-45
2021/06/18 06:58:53;;;;;;;19.10;10.05;;;24.20;99.90;;;;;;5113294;27;20504;-47
2021/06/18 07:01:19;;;;;;;15.60;8.88;;;24.30;99.90;;;;;;5083882;28;20485;-46
2021/06/18 07:03:44;;;;;;;17.25;9.40;;;24.50;99.90;;;;;;5108206;27;20019;-45
2021/06/18 07:06:10;;;;;;;16.35;9.65;;;24.60;99.90;;;;;;5121905;27;20083;-45
2021/06/18 07:08:36;;;;;;;15.15;9.02;;;24.70;99.90;;;;;;5118667;27;20388;-46
2021/06/18 07:11:02;;;;;;;12.77;10.13;;;24.80;99.90;;;;;;5098773;28;20473;-45
2021/06/18 07:13:28;;;;;;;12.95;10.57;;;25.00;99.90;;;;;;5122103;27;20030;-46
2021/06/18 07:15:53;;;;;;;13.85;9.55;;;25.00;99.90;;;;;;5108176;27;20033;-44
2021/06/18 07:18:19;;;;;;;15.02;9.80;;;25.10;99.90;;;;;;5102610;28;20519;-46
2021/06/18 07:20:45;;;;;;;9.73;8.65;;;25.20;99.90;;;;;;5107817;28;20020;-45
2021/06/18 07:23:10;;;;;;;10.23;9.15;;;25.30;99.90;;;;;;5104196;28;20084;-45
2021/06/18 07:25:37;;;;;;;13.35;9.60;;;25.40;99.90;;;;;;5109507;28;20038;-44
2021/06/18 07:28:04;;;;;;;12.77;9.40;;;25.40;99.90;;;;;;5109446;27;20429;-46
2021/06/18 07:30:29;;;;;;;14.07;9.43;;;25.50;99.90;;;;;;5111972;27;20077;-45
2021/06/18 07:32:55;;;;;;;10.00;9.00;;;25.70;99.90;;;;;;5109279;28;20437;-45
2021/06/18 07:35:21;;;;;;;10.13;8.90;;;25.90;99.90;;;;;;5109507;28;20472;-45
2021/06/18 07:37:46;;;;;;;9.45;8.25;;;26.00;99.00;;;;;;5095621;28;20378;-45
2021/06/18 07:40:14;;;;;;;15.43;8.98;;;26.20;98.10;;;;;;5101386;28;20031;-45
2021/06/18 07:42:41;;;;;;;10.10;9.10;;;26.40;98.20;;;;;;5101950;27;20028;-45
2021/06/18 07:45:07;;;;;;;13.02;9.63;;;26.50;98.20;;;;;;5108033;28;20098;-45
2021/06/18 07:47:32;;;;;;;11.75;9.05;;;26.60;98.00;;;;;;5105170;27;20157;-45
2021/06/18 07:50:00;;;;;;;11.55;9.00;;;26.70;97.60;;;;;;5104026;28;20061;-45
2021/06/18 07:52:26;;;;;;;10.27;8.25;;;26.80;97.50;;;;;;5109099;28;20045;-44
2021/06/18 07:54:55;;;;;;;11.30;8.13;;;27.10;96.70;;;;;;5107655;28;20525;-45
2021/06/18 07:57:20;;;;;;;8.63;7.60;;;27.20;96.70;;;;;;5097251;28;20133;-45
2021/06/18 07:59:46;;;;;;;12.13;8.20;;;27.40;96.50;;;;;;5110514;27;20479;-45
2021/06/18 08:02:12;;;;;;;10.68;7.78;;;27.60;95.40;;;;;;5105962;28;20366;-44
2021/06/18 08:04:37;;;;;;;8.57;7.60;;;27.70;94.40;;;;;;5107636;28;20028;-44
2021/06/18 08:07:03;;;;;;;7.57;6.80;;;27.90;94.00;;;;;;5098519;28;20023;-48
2021/06/18 08:09:28;;;;;;;9.65;6.63;;;28.30;93.30;;;;;;5104444;28;20054;-45
2021/06/18 08:11:54;;;;;;;13.23;6.97;;;29.00;91.80;;;;;;5094656;28;20150;-46
2021/06/18 08:14:21;;;;;;;9.93;6.25;;;29.70;90.40;;;;;;5087952;28;20024;-46
2021/06/18 08:16:46;;;;;;;10.48;6.47;;;31.00;83.80;;;;;;5091318;28;20404;-46
2021/06/18 08:19:12;;;;;;;8.02;6.20;;;31.90;78.40;;;;;;5108433;27;20035;-46
2021/06/18 08:21:37;;;;;;;13.52;5.65;;;33.20;74.20;;;;;;5127351;27;20130;-46
2021/06/18 08:24:03;;;;;;;6.78;5.13;;;33.90;68.40;;;;;;5125060;27;20023;-46
2021/06/18 08:26:29;;;;;;;10.15;5.07;;;35.00;63.90;;;;;;5101449;28;20020;-46
2021/06/18 08:28:54;;;;;;;6.75;5.15;;;36.10;60.10;;;;;;5113004;27;20021;-45
2021/06/18 08:31:20;;;;;;;7.80;5.70;;;37.50;53.60;;;;;;5097678;28;20366;-47
2021/06/18 08:33:46;;;;;;;7.95;4.95;;;37.80;50.70;;;;;;5098749;28;20502;-46
2021/06/18 08:36:12;;;;;;;7.82;5.10;;;38.10;51.50;;;;;;5112724;28;20050;-46
2021/06/18 08:38:39;;;;;;;6.97;4.90;;;38.40;48.50;;;;;;5101488;28;20633;-46
2021/06/18 08:41:05;;;;;;;4.68;4.25;;;38.70;50.40;;;;;;5092619;28;20373;-46
2021/06/18 08:43:32;;;;;;;6.75;4.32;;;39.00;45.90;;;;;;5092726;28;20058;-46
2021/06/18 08:46:00;;;;;;;4.40;3.85;;;39.30;45.40;;;;;;5108261;28;20024;-46
2021/06/18 08:48:27;;;;;;;6.85;4.57;;;39.20;45.80;;;;;;5103434;28;20016;-46
2021/06/18 08:50:53;;;;;;;5.32;4.47;;;40.00;46.80;;;;;;5098629;28;20487;-47
2021/06/18 08:53:19;;;;;;;8.05;4.53;;;40.40;46.10;;;;;;5107457;28;20055;-47
2021/06/18 08:55:45;;;;;;;6.53;3.72;;;41.20;44.80;;;;;;5099116;28;20519;-47
2021/06/18 08:58:10;;;;;;;4.47;3.70;;;40.60;42.50;;;;;;5108179;28;20036;-46
2021/06/18 09:00:36;;;;;;;7.22;3.80;;;41.40;43.00;;;;;;5100850;28;20035;-46
2021/06/18 09:03:31;;;;;;;4.38;3.90;;;43.10;39.60;;;;;;5091398;28;20542;-47
2021/06/18 09:05:59;;;;;;;4.35;3.95;;;43.70;38.40;;;;;;5094888;28;20111;-46
2021/06/18 09:08:25;;;;;;;13.60;4.20;;;42.70;38.80;;;;;;5103441;28;20479;-46
2021/06/18 09:10:51;;;;;;;7.78;4.00;;;42.70;39.10;;;;;;5111654;28;20284;-46
2021/06/18 09:13:30;;;;;;;8.95;3.85;;;43.30;38.50;;;;;;5117902;27;20034;-46
2021/06/18 09:15:57;;;;;;;3.88;3.30;;;44.10;37.30;;;;;;5098663;28;20028;-46
2021/06/18 09:18:31;;;;;;;6.10;3.25;;;43.70;37.30;;;;;;5096111;28;20028;-46
2021/06/18 09:21:03;;;;;;;11.10;4.05;;;43.60;37.20;;;;;;5095760;28;20520;-48
2021/06/18 09:23:31;;;;;;;6.78;3.95;;;43.80;37.60;;;;;;5099102;28;20519;-45
2021/06/18 09:26:24;;;;;;;6.10;3.83;;;44.20;37.60;;;;;;5096339;28;20367;-46
2021/06/18 09:29:06;;;;;;;5.22;3.75;;;44.20;38.40;;;;;;5103234;28;20031;-48
2021/06/18 09:31:35;;;;;;;4.00;3.30;;;43.80;37.10;;;;;;5094498;28;20063;-48
2021/06/18 09:34:03;;;;;;;5.38;3.80;;;43.50;37.60;;;;;;5103387;28;20024;-46
2021/06/18 09:36:30;;;;;;;3.97;3.53;;;44.40;37.20;;;;;;5096753;28;20031;-46
2021/06/18 09:38:56;;;;;;;6.45;4.07;;;44.60;37.90;;;;;;5103717;28;20027;-49
2021/06/18 09:41:32;;;;;;;4.63;3.10;;;44.90;36.30;;;;;;5096447;28;20144;-47
2021/06/18 09:44:07;;;;;;;6.13;3.90;;;44.40;37.10;;;;;;5095357;28;20620;-46
2021/06/18 09:46:52;;;;;;;6.35;3.28;;;44.80;37.50;;;;;;5097342;28;20485;-47
2021/06/18 09:49:29;;;;;;;6.70;3.47;;;45.30;36.80;;;;;;5098788;27;20080;-45
2021/06/18 09:51:55;;;;;;;6.07;3.60;;;46.20;35.80;;;;;;5093930;27;20081;-46
2021/06/18 09:54:20;;;;;;;4.68;3.60;;;46.00;36.10;;;;;;5123548;27;20426;-46
2021/06/18 09:56:46;;;;;;;5.05;3.83;;;45.80;36.50;;;;;;5115492;27;20024;-49
2021/06/18 09:59:23;;;;;;;7.32;4.03;;;45.00;36.90;;;;;;5101564;28;20032;-46
2021/06/18 10:01:53;;;;;;;8.17;3.77;;;44.80;36.50;;;;;;5109726;28;20389;-47
2021/06/18 10:04:19;;;;;;;4.78;3.53;;;44.90;36.10;;;;;;5111404;28;20260;-47
2021/06/18 10:06:45;;;;;;;6.40;3.25;;;42.80;36.60;;;;;;5109463;28;20388;-45
2021/06/18 10:09:16;;;;;;;3.72;3.20;;;43.60;35.80;;;;;;5110892;28;20027;-45
2021/06/18 10:11:43;;;;;;;3.58;3.22;;;44.50;35.00;;;;;;5092249;28;20036;-46
2021/06/18 10:14:08;;;;;;;3.83;3.00;;;44.30;34.50;;;;;;5107981;28;20173;-46
2021/06/18 10:16:34;;;;;;;4.03;3.10;;;45.20;33.60;;;;;;5106313;28;20568;-46
2021/06/18 10:19:01;;;;;;;4.07;3.40;;;45.40;34.20;;;;;;5102424;28;20031;-46
2021/06/18 10:21:28;;;;;;;3.65;3.33;;;45.80;33.40;;;;;;5112672;27;20367;-47
2021/06/18 10:24:00;;;;;;;4.85;3.40;;;45.90;35.10;;;;;;5109442;28;20019;-47
2021/06/18 10:26:27;;;;;;;4.47;3.45;;;46.10;35.00;;;;;;5117202;27;20012;-47
2021/06/18 10:28:54;;;;;;;5.50;3.55;;;46.40;35.10;;;;;;5117949;27;20024;-49
2021/06/18 10:31:28;;;;;;;7.90;3.85;;;46.50;35.30;;;;;;5090249;28;20028;-45
2021/06/18 10:34:20;;;;;;;9.45;4.03;;;47.00;34.30;;;;;;5090638;28;20445;-45
2021/06/18 10:36:45;;;;;;;7.30;3.30;;;47.10;35.20;;;;;;5098618;28;20034;-45
2021/06/18 10:39:16;;;;;;;5.57;3.45;;;46.50;34.10;;;;;;5110116;28;20109;-48
2021/06/18 10:41:53;;;;;;;7.00;3.67;;;46.60;35.10;;;;;;5109975;28;20053;-46
2021/06/18 10:44:37;;;;;;;6.63;3.97;;;46.90;35.20;;;;;;5110970;28;20077;-45
2021/06/18 10:47:03;;;;;;;5.22;4.10;;;46.90;35.10;;;;;;5102770;28;20039;-44
2021/06/18 10:49:39;;;;;;;6.63;3.80;;;46.70;36.10;;;;;;5109950;28;20024;-45
2021/06/18 10:52:16;;;;;;;6.60;3.38;;;47.50;34.40;;;;;;5111070;28;20512;-45
2021/06/18 10:54:50;;;;;;;4.72;3.53;;;47.20;33.70;;;;;;5104569;27;20019;-45
2021/06/18 10:57:21;;;;;;;4.47;2.95;;;47.20;33.70;;;;;;5118390;27;20030;-45
2021/06/18 10:59:53;;;;;;;5.50;2.70;;;47.20;33.10;;;;;;5104288;28;20034;-45
2021/06/18 11:02:25;;;;;;;7.22;3.72;;;47.50;32.00;;;;;;5110075;28;20027;-44
2021/06/18 11:04:56;;;;;;;3.50;2.90;;;47.00;32.60;;;;;;5110457;28;20104;-45
2021/06/18 11:07:31;;;;;;;3.35;3.00;;;47.20;31.80;;;;;;5101977;28;20108;-45
2021/06/18 11:09:59;;;;;;;5.20;3.22;;;47.40;32.10;;;;;;5108539;28;20155;-45
2021/06/18 11:12:24;;;;;;;5.78;3.17;;;47.40;31.80;;;;;;5101627;28;20027;-45
2021/06/18 11:15:02;;;;;;;3.10;2.75;;;46.80;32.20;;;;;;5110512;28;20032;-44
2021/06/18 11:17:40;;;;;;;6.00;2.70;;;47.40;31.30;;;;;;5096269;28;20114;-45
2021/06/18 11:20:07;;;;;;;6.03;2.77;;;48.10;31.20;;;;;;5107374;28;20102;-45
2021/06/18 11:22:48;;;;;;;2.67;2.47;;;47.40;31.30;;;;;;5110279;28;20027;-46
2021/06/18 11:25:32;;;;;;;4.72;3.17;;;47.40;30.70;;;;;;5108685;28;20486;-45
2021/06/18 11:30:53;;;;;;;6.65;2.65;;;47.00;32.00;;;;;;5095179;28;20473;-45
2021/06/18 11:33:37;;;;;;;3.20;2.92;;;47.00;31.80;;;;;;5109871;28;20039;-45
2021/06/18 11:36:07;;;;;;;5.32;2.80;;;48.10;31.30;;;;;;5099029;28;20024;-47
2021/06/18 11:38:34;;;;;;;5.80;2.83;;;47.50;31.80;;;;;;5089217;27;20025;-46
2021/06/18 11:41:02;;;;;;;4.30;3.13;;;46.70;32.00;;;;;;5102842;28;20016;-45
2021/06/18 11:43:29;;;;;;;3.90;2.90;;;46.60;32.40;;;;;;5113288;27;20350;-46
2021/06/18 11:45:55;;;;;;;3.47;2.85;;;46.80;31.20;;;;;;5107231;27;20016;-45
2021/06/18 11:48:21;;;;;;;7.72;3.40;;;46.50;33.00;;;;;;5116436;27;20016;-49
2021/06/18 11:50:48;;;;;;;5.70;3.13;;;46.10;33.40;;;;;;5123454;27;20106;-47
2021/06/18 11:53:15;;;;;;;4.10;3.17;;;45.90;32.50;;;;;;5121281;27;20042;-45
2021/06/18 11:55:41;;;;;;;6.07;3.28;;;46.40;32.80;;;;;;5108710;27;20016;-45
2021/06/18 11:58:27;;;;;;;6.00;3.53;;;45.70;33.70;;;;;;5102741;28;20034;-46
2021/06/18 12:00:52;;;;;;;5.50;3.45;;;44.90;33.70;;;;;;5087982;28;20036;-45
2021/06/18 12:03:31;;;;;;;8.32;3.47;;;44.40;35.50;;;;;;5099786;28;20212;-45
2021/06/18 12:05:56;;;;;;;5.47;3.70;;;43.70;35.70;;;;;;5108415;28;20024;-44
2021/06/18 12:08:22;;;;;;;5.43;3.78;;;43.40;35.50;;;;;;5100337;28;20038;-47
2021/06/18 12:10:47;;;;;;;6.30;3.90;;;43.20;35.50;;;;;;5108492;28;20042;-46
2021/06/18 12:13:14;;;;;;;7.15;4.05;;;41.70;36.70;;;;;;5106626;28;20405;-44
2021/06/18 12:15:40;;;;;;;4.28;3.35;;;41.90;37.40;;;;;;5105443;28;20171;-44
2021/06/18 12:18:06;;;;;;;8.73;4.20;;;41.70;37.60;;;;;;5095917;28;20396;-44
2021/06/18 12:20:42;;;;;;;11.10;3.55;;;41.30;36.50;;;;;;5095802;28;20509;-47
2021/06/18 12:23:14;;;;;;;4.53;4.07;;;41.10;37.50;;;;;;5114620;27;20535;-45
2021/06/18 12:25:40;;;;;;;6.93;4.35;;;39.60;37.20;;;;;;5100461;28;20015;-45
2021/06/18 12:28:07;;;;;;;4.90;4.47;;;38.70;37.60;;;;;;5101893;28;20363;-44
2021/06/18 12:30:37;;;;;;;4.63;4.22;;;38.60;37.90;;;;;;5108730;27;20030;-45
2021/06/18 12:33:05;;;;;;;5.75;4.15;;;38.50;39.40;;;;;;5100047;28;20035;-44
2021/06/18 12:35:40;;;;;;;4.53;4.10;;;38.60;40.10;;;;;;5107457;28;20020;-45
2021/06/18 12:38:07;;;;;;;7.80;4.68;;;38.40;40.80;;;;;;5106389;28;20099;-45
2021/06/18 12:40:33;;;;;;;6.93;4.95;;;38.40;39.30;;;;;;5108238;28;20047;-44
2021/06/18 12:43:06;;;;;;;4.40;3.72;;;38.70;39.00;;;;;;5104515;28;20027;-44
2021/06/18 12:45:32;;;;;;;5.47;4.07;;;38.90;39.20;;;;;;5106885;28;20041;-46
2021/06/18 12:48:14;;;;;;;5.60;4.22;;;39.00;38.40;;;;;;5108897;28;20020;-44
2021/06/18 12:50:58;;;;;;;10.13;4.80;;;38.70;40.20;;;;;;5101896;28;20020;-46
2021/06/18 12:53:38;;;;;;;9.15;4.05;;;38.20;41.10;;;;;;5106474;28;20023;-45